KEDU

University Airport

Davis, California, USA
METAR KEDU 221720Z AUTO 21006KT 140V240 10SM CLR 19/12 A2987 RMK AO1
Observed Flight Rules
May-22 @ 17:20 UTC (30 minutes ago) Visual Flight Rules
Wind Visibility Clouds
210° at 6 knots 10 miles
  • Clear skies
Temperatures Readings
Current 19°C / 66°F
Dewpoint 12°C / 54°F
Humidity 64%
Altimeter 29.87" Hg
Pressure 1012 hPa
Elevation 21
METAR KEDU 221720Z AUTO 21006KT 140V240 10SM CLR 19/12 A2987 RMK AO1
Observed Flight Rules
May-22 @ 17:20 UTC
(30 minutes ago)
VFR
Wind Visibility
210° at 6 knots 10 miles
Clouds
  • Clear skies
Temperature Dewpoint
19°C / 66°F 12°C / 54°F
Humidity Altimeter Pressure
64% 29.87" Hg 1012 hPa